sensor_id;sensor_type;location;lat;lon;timestamp;pressure;altitude;pressure_sealevel;temperature;humidity
28289;BME280;15558;50.874;6.964;2023-01-26T00:01:25;102206.19;;;4.75;69.38
28289;BME280;15558;50.874;6.964;2023-01-26T00:03:56;102187.41;;;4.71;69.12
28289;BME280;15558;50.874;6.964;2023-01-26T00:06:48;102182.06;;;4.69;69.06
28289;BME280;15558;50.874;6.964;2023-01-26T00:09:51;102177.75;;;4.73;68.93
28289;BME280;15558;50.874;6.964;2023-01-26T00:12:19;102182.31;;;4.68;69.26
28289;BME280;15558;50.874;6.964;2023-01-26T00:14:46;102175.66;;;4.69;69.29
28289;BME280;15558;50.874;6.964;2023-01-26T00:17:27;102179.06;;;4.71;69.52
28289;BME280;15558;50.874;6.964;2023-01-26T00:20:16;102185.47;;;4.71;69.44
28289;BME280;15558;50.874;6.964;2023-01-26T00:22:52;102175.50;;;4.64;68.94
28289;BME280;15558;50.874;6.964;2023-01-26T00:25:19;102173.09;;;4.67;69.00
28289;BME280;15558;50.874;6.964;2023-01-26T00:27:50;102175.66;;;4.69;68.86
28289;BME280;15558;50.874;6.964;2023-01-26T00:30:18;102168.91;;;4.58;69.03
28289;BME280;15558;50.874;6.964;2023-01-26T00:32:47;102163.47;;;4.70;68.82
28289;BME280;15558;50.874;6.964;2023-01-26T00:35:17;102149.16;;;4.66;68.95
28289;BME280;15558;50.874;6.964;2023-01-26T00:37:47;102158.97;;;4.69;69.21
28289;BME280;15558;50.874;6.964;2023-01-26T00:40:13;102145.41;;;4.54;69.16
28289;BME280;15558;50.874;6.964;2023-01-26T00:43:00;102153.31;;;4.57;69.48
28289;BME280;15558;50.874;6.964;2023-01-26T00:45:30;102147.56;;;4.53;68.88
28289;BME280;15558;50.874;6.964;2023-01-26T00:47:59;102144.03;;;4.63;69.31
28289;BME280;15558;50.874;6.964;2023-01-26T00:50:28;102141.50;;;4.62;68.63
28289;BME280;15558;50.874;6.964;2023-01-26T00:52:55;102143.03;;;4.58;68.86
28289;BME280;15558;50.874;6.964;2023-01-26T00:55:21;102132.78;;;4.58;69.00
28289;BME280;15558;50.874;6.964;2023-01-26T00:57:48;102131.53;;;4.54;68.70
28289;BME280;15558;50.874;6.964;2023-01-26T01:00:14;102143.09;;;4.52;68.71
28289;BME280;15558;50.874;6.964;2023-01-26T01:02:49;102139.84;;;4.54;68.82
28289;BME280;15558;50.874;6.964;2023-01-26T01:05:15;102141.38;;;4.51;68.89
28289;BME280;15558;50.874;6.964;2023-01-26T01:07:41;102143.78;;;4.47;68.88
28289;BME280;15558;50.874;6.964;2023-01-26T01:10:07;102133.94;;;4.45;68.54
28289;BME280;15558;50.874;6.964;2023-01-26T01:12:35;102133.91;;;4.51;68.78
28289;BME280;15558;50.874;6.964;2023-01-26T01:15:02;102134.63;;;4.40;68.55
28289;BME280;15558;50.874;6.964;2023-01-26T01:17:31;102129.75;;;4.36;68.56
28289;BME280;15558;50.874;6.964;2023-01-26T01:19:59;102127.59;;;4.38;68.48
28289;BME280;15558;50.874;6.964;2023-01-26T01:22:25;102134.25;;;4.37;68.47
28289;BME280;15558;50.874;6.964;2023-01-26T01:24:54;102132.72;;;4.41;68.39
28289;BME280;15558;50.874;6.964;2023-01-26T01:27:24;102131.63;;;4.42;68.91
28289;BME280;15558;50.874;6.964;2023-01-26T01:29:53;102125.59;;;4.45;68.67
28289;BME280;15558;50.874;6.964;2023-01-26T01:32:20;102126.53;;;4.39;68.99
28289;BME280;15558;50.874;6.964;2023-01-26T01:34:55;102120.97;;;4.39;69.20
28289;BME280;15558;50.874;6.964;2023-01-26T01:37:52;102118.84;;;4.41;68.27
28289;BME280;15558;50.874;6.964;2023-01-26T01:40:27;102121.16;;;4.44;68.95
28289;BME280;15558;50.874;6.964;2023-01-26T01:42:55;102119.88;;;4.40;68.80
28289;BME280;15558;50.874;6.964;2023-01-26T01:47:53;102109.88;;;4.39;69.02
28289;BME280;15558;50.874;6.964;2023-01-26T01:50:24;102108.38;;;4.36;68.61
28289;BME280;15558;50.874;6.964;2023-01-26T01:52:51;102110.09;;;4.37;68.46
28289;BME280;15558;50.874;6.964;2023-01-26T01:55:18;102106.16;;;4.45;68.77
28289;BME280;15558;50.874;6.964;2023-01-26T01:57:54;102106.16;;;4.45;68.97
28289;BME280;15558;50.874;6.964;2023-01-26T02:00:23;102106.16;;;4.45;68.26
28289;BME280;15558;50.874;6.964;2023-01-26T02:02:58;102104.00;;;4.47;68.90
28289;BME280;15558;50.874;6.964;2023-01-26T02:08:26;102087.78;;;4.44;68.60
28289;BME280;15558;50.874;6.964;2023-01-26T02:11:04;102083.28;;;4.43;68.09
28289;BME280;15558;50.874;6.964;2023-01-26T02:13:45;102080.50;;;4.43;68.92
28289;BME280;15558;50.874;6.964;2023-01-26T02:16:15;102080.13;;;4.39;68.41
28289;BME280;15558;50.874;6.964;2023-01-26T02:18:42;102087.84;;;4.37;69.51
28289;BME280;15558;50.874;6.964;2023-01-26T02:21:19;102078.03;;;4.35;68.83
28289;BME280;15558;50.874;6.964;2023-01-26T02:26:22;102070.56;;;4.35;68.91
28289;BME280;15558;50.874;6.964;2023-01-26T02:28:59;102075.28;;;4.35;68.84
28289;BME280;15558;50.874;6.964;2023-01-26T02:31:47;102067.09;;;4.40;69.32
28289;BME280;15558;50.874;6.964;2023-01-26T02:34:20;102072.56;;;4.46;68.66
28289;BME280;15558;50.874;6.964;2023-01-26T02:36:55;102069.66;;;4.41;69.00
28289;BME280;15558;50.874;6.964;2023-01-26T02:41:55;102066.88;;;4.41;68.67
28289;BME280;15558;50.874;6.964;2023-01-26T02:44:49;102065.84;;;4.36;69.09
28289;BME280;15558;50.874;6.964;2023-01-26T02:47:22;102052.00;;;4.29;68.56
28289;BME280;15558;50.874;6.964;2023-01-26T02:49:48;102046.44;;;4.29;68.69
28289;BME280;15558;50.874;6.964;2023-01-26T02:52:42;102052.63;;;4.31;68.26
28289;BME280;15558;50.874;6.964;2023-01-26T02:55:13;102047.91;;;4.32;68.31
28289;BME280;15558;50.874;6.964;2023-01-26T02:57:56;102042.13;;;4.33;68.93
28289;BME280;15558;50.874;6.964;2023-01-26T03:00:27;102037.41;;;4.34;68.49
28289;BME280;15558;50.874;6.964;2023-01-26T03:03:18;102036.50;;;4.40;68.77
28289;BME280;15558;50.874;6.964;2023-01-26T03:05:55;102032.88;;;4.39;68.69
28289;BME280;15558;50.874;6.964;2023-01-26T03:08:21;102032.88;;;4.39;68.23
28289;BME280;15558;50.874;6.964;2023-01-26T03:10:51;102037.81;;;4.37;68.15
28289;BME280;15558;50.874;6.964;2023-01-26T03:13:21;102035.25;;;4.36;68.20
28289;BME280;15558;50.874;6.964;2023-01-26T03:15:49;102033.72;;;4.40;67.98
28289;BME280;15558;50.874;6.964;2023-01-26T03:18:20;102023.94;;;4.37;68.08
28289;BME280;15558;50.874;6.964;2023-01-26T03:21:09;102025.41;;;4.40;68.27
28289;BME280;15558;50.874;6.964;2023-01-26T03:23:54;102023.25;;;4.42;68.12
28289;BME280;15558;50.874;6.964;2023-01-26T03:26:40;102028.03;;;4.35;68.63
28289;BME280;15558;50.874;6.964;2023-01-26T03:29:25;102029.72;;;4.36;68.39
28289;BME280;15558;50.874;6.964;2023-01-26T03:31:52;102027.56;;;4.38;68.18
28289;BME280;15558;50.874;6.964;2023-01-26T03:34:20;102016.59;;;4.43;68.37
28289;BME280;15558;50.874;6.964;2023-01-26T03:36:47;102010.25;;;4.36;67.68
28289;BME280;15558;50.874;6.964;2023-01-26T03:39:19;102025.00;;;4.36;67.88
28289;BME280;15558;50.874;6.964;2023-01-26T03:42:05;102018.59;;;4.36;67.74
28289;BME280;15558;50.874;6.964;2023-01-26T03:44:52;102017.81;;;4.29;68.41
28289;BME280;15558;50.874;6.964;2023-01-26T03:47:47;102017.59;;;4.30;68.73
28289;BME280;15558;50.874;6.964;2023-01-26T03:50:35;102010.88;;;4.38;68.74
28289;BME280;15558;50.874;6.964;2023-01-26T03:53:26;102007.94;;;4.33;68.80
28289;BME280;15558;50.874;6.964;2023-01-26T03:56:19;102012.88;;;4.31;67.90
28289;BME280;15558;50.874;6.964;2023-01-26T03:59:07;102009.84;;;4.32;68.18
28289;BME280;15558;50.874;6.964;2023-01-26T04:01:43;102014.41;;;4.27;69.28
28289;BME280;15558;50.874;6.964;2023-01-26T04:04:27;102009.25;;;4.30;68.94
28289;BME280;15558;50.874;6.964;2023-01-26T04:07:12;102019.50;;;4.30;68.62
28289;BME280;15558;50.874;6.964;2023-01-26T04:09:58;102002.81;;;4.30;69.47
28289;BME280;15558;50.874;6.964;2023-01-26T04:12:24;102011.63;;;4.27;68.74
28289;BME280;15558;50.874;6.964;2023-01-26T04:14:53;102007.13;;;4.26;69.21
28289;BME280;15558;50.874;6.964;2023-01-26T04:17:38;102003.31;;;4.27;69.21
28289;BME280;15558;50.874;6.964;2023-01-26T04:20:22;102010.94;;;4.31;69.13
28289;BME280;15558;50.874;6.964;2023-01-26T04:23:06;102000.34;;;4.22;69.22
28289;BME280;15558;50.874;6.964;2023-01-26T04:25:41;101998.59;;;4.27;69.31
28289;BME280;15558;50.874;6.964;2023-01-26T04:28:09;101991.09;;;4.28;69.30
28289;BME280;15558;50.874;6.964;2023-01-26T04:30:41;102009.28;;;4.24;69.15
28289;BME280;15558;50.874;6.964;2023-01-26T04:33:07;101998.81;;;4.26;69.69
28289;BME280;15558;50.874;6.964;2023-01-26T04:35:33;101998.16;;;4.30;69.35
28289;BME280;15558;50.874;6.964;2023-01-26T04:38:00;101996.50;;;4.23;68.98
28289;BME280;15558;50.874;6.964;2023-01-26T04:40:31;101985.78;;;4.26;68.95
28289;BME280;15558;50.874;6.964;2023-01-26T04:43:01;101974.28;;;4.23;68.73
28289;BME280;15558;50.874;6.964;2023-01-26T04:45:30;101994.34;;;4.25;69.32
28289;BME280;15558;50.874;6.964;2023-01-26T04:47:57;101998.03;;;4.19;69.23
28289;BME280;15558;50.874;6.964;2023-01-26T04:50:27;102010.22;;;4.18;69.17
28289;BME280;15558;50.874;6.964;2023-01-26T04:52:55;102003.81;;;4.18;69.16
28289;BME280;15558;50.874;6.964;2023-01-26T04:55:22;102007.22;;;4.19;69.50
28289;BME280;15558;50.874;6.964;2023-01-26T04:57:48;102006.38;;;4.19;69.60
28289;BME280;15558;50.874;6.964;2023-01-26T05:00:14;101998.88;;;4.19;68.80
28289;BME280;15558;50.874;6.964;2023-01-26T05:02:43;101995.72;;;4.16;69.40
28289;BME280;15558;50.874;6.964;2023-01-26T05:05:34;101998.88;;;4.19;69.29
28289;BME280;15558;50.874;6.964;2023-01-26T05:08:05;101997.25;;;4.12;69.92
28289;BME280;15558;50.874;6.964;2023-01-26T05:10:34;101992.94;;;4.16;69.48
28289;BME280;15558;50.874;6.964;2023-01-26T05:13:04;101997.41;;;4.17;69.27
28289;BME280;15558;50.874;6.964;2023-01-26T05:15:35;101990.16;;;4.16;69.62
28289;BME280;15558;50.874;6.964;2023-01-26T05:18:02;102010.22;;;4.18;69.46
28289;BME280;15558;50.874;6.964;2023-01-26T05:20:30;102011.91;;;4.19;69.28
28289;BME280;15558;50.874;6.964;2023-01-26T05:22:56;102010.22;;;4.18;69.41
28289;BME280;15558;50.874;6.964;2023-01-26T05:25:22;102016.09;;;4.28;70.12
28289;BME280;15558;50.874;6.964;2023-01-26T05:27:58;102011.50;;;4.16;70.19
28289;BME280;15558;50.874;6.964;2023-01-26T05:30:33;102013.66;;;4.14;70.24
28289;BME280;15558;50.874;6.964;2023-01-26T05:33:01;102012.38;;;4.16;70.18
28289;BME280;15558;50.874;6.964;2023-01-26T05:35:27;102005.34;;;4.14;70.77
28289;BME280;15558;50.874;6.964;2023-01-26T05:37:53;102014.75;;;4.13;70.13
28289;BME280;15558;50.874;6.964;2023-01-26T05:40:31;102015.16;;;4.16;70.16
28289;BME280;15558;50.874;6.964;2023-01-26T05:43:01;102015.59;;;4.13;71.05
28289;BME280;15558;50.874;6.964;2023-01-26T05:45:27;102011.91;;;4.19;70.27
28289;BME280;15558;50.874;6.964;2023-01-26T05:47:54;102018.25;;;4.26;70.54
28289;BME280;15558;50.874;6.964;2023-01-26T05:50:24;102013.00;;;4.18;70.67
28289;BME280;15558;50.874;6.964;2023-01-26T05:53:00;102007.69;;;4.17;70.01
28289;BME280;15558;50.874;6.964;2023-01-26T05:55:33;102003.13;;;4.22;70.21
28289;BME280;15558;50.874;6.964;2023-01-26T05:57:59;102007.00;;;4.21;70.02
28289;BME280;15558;50.874;6.964;2023-01-26T06:00:26;102020.88;;;4.21;70.34
28289;BME280;15558;50.874;6.964;2023-01-26T06:02:51;102010.47;;;4.17;70.80
28289;BME280;15558;50.874;6.964;2023-01-26T06:05:22;102017.47;;;4.19;70.50
28289;BME280;15558;50.874;6.964;2023-01-26T06:07:48;102016.69;;;4.12;70.37
28289;BME280;15558;50.874;6.964;2023-01-26T06:10:15;102015.16;;;4.16;69.98
28289;BME280;15558;50.874;6.964;2023-01-26T06:12:43;102019.00;;;4.15;70.19
28289;BME280;15558;50.874;6.964;2023-01-26T06:15:14;102018.78;;;4.17;70.83
28289;BME280;15558;50.874;6.964;2023-01-26T06:17:46;102013.22;;;4.17;70.65
28289;BME280;15558;50.874;6.964;2023-01-26T06:20:15;102013.44;;;4.15;70.59
28289;BME280;15558;50.874;6.964;2023-01-26T06:22:43;102027.97;;;4.17;70.30
28289;BME280;15558;50.874;6.964;2023-01-26T06:25:10;102018.56;;;4.18;69.78
28289;BME280;15558;50.874;6.964;2023-01-26T06:27:41;102027.75;;;4.18;69.82
28289;BME280;15558;50.874;6.964;2023-01-26T06:30:08;102021.72;;;4.21;70.23
28289;BME280;15558;50.874;6.964;2023-01-26T06:32:54;102025.97;;;4.24;70.47
28289;BME280;15558;50.874;6.964;2023-01-26T06:35:20;102042.25;;;4.20;70.02
28289;BME280;15558;50.874;6.964;2023-01-26T06:37:47;102034.16;;;4.19;70.35
28289;BME280;15558;50.874;6.964;2023-01-26T06:40:18;102036.94;;;4.19;70.39
28289;BME280;15558;50.874;6.964;2023-01-26T06:42:47;102034.00;;;4.14;70.53
28289;BME280;15558;50.874;6.964;2023-01-26T06:45:15;102034.16;;;4.19;70.35
28289;BME280;15558;50.874;6.964;2023-01-26T06:47:46;102042.25;;;4.20;70.71
28289;BME280;15558;50.874;6.964;2023-01-26T06:50:24;102034.94;;;4.26;70.99
28289;BME280;15558;50.874;6.964;2023-01-26T06:52:51;102033.53;;;4.17;71.09
28289;BME280;15558;50.874;6.964;2023-01-26T06:55:23;102041.00;;;4.17;71.38
28289;BME280;15558;50.874;6.964;2023-01-26T06:58:06;102042.06;;;4.16;70.69
28289;BME280;15558;50.874;6.964;2023-01-26T07:00:51;102045.09;;;4.14;70.87
28289;BME280;15558;50.874;6.964;2023-01-26T07:03:18;102047.88;;;4.14;70.91
28289;BME280;15558;50.874;6.964;2023-01-26T07:05:44;102042.31;;;4.14;70.90
28289;BME280;15558;50.874;6.964;2023-01-26T07:08:16;102041.91;;;4.11;71.24
28289;BME280;15558;50.874;6.964;2023-01-26T07:10:48;102044.84;;;4.16;71.23
28289;BME280;15558;50.874;6.964;2023-01-26T07:13:16;102042.06;;;4.16;71.66
28289;BME280;15558;50.874;6.964;2023-01-26T07:15:46;102045.72;;;4.16;71.24
28289;BME280;15558;50.874;6.964;2023-01-26T07:18:12;102044.78;;;4.22;71.17
28289;BME280;15558;50.874;6.964;2023-01-26T07:20:42;102051.91;;;4.18;71.86
28289;BME280;15558;50.874;6.964;2023-01-26T07:23:11;102048.66;;;4.21;71.70
28289;BME280;15558;50.874;6.964;2023-01-26T07:25:37;102049.50;;;4.21;71.83
28289;BME280;15558;50.874;6.964;2023-01-26T07:28:05;102047.19;;;4.18;71.82
28289;BME280;15558;50.874;6.964;2023-01-26T07:30:34;102046.28;;;4.24;72.04
28289;BME280;15558;50.874;6.964;2023-01-26T07:33:06;102040.72;;;4.24;71.37
28289;BME280;15558;50.874;6.964;2023-01-26T07:35:33;102035.41;;;4.23;71.76
28289;BME280;15558;50.874;6.964;2023-01-26T07:38:06;102042.63;;;4.24;71.80
28289;BME280;15558;50.874;6.964;2023-01-26T07:40:39;102043.50;;;4.24;71.06
28289;BME280;15558;50.874;6.964;2023-01-26T07:43:06;102043.25;;;4.26;71.05
28289;BME280;15558;50.874;6.964;2023-01-26T07:45:33;102041.97;;;4.28;71.05
28289;BME280;15558;50.874;6.964;2023-01-26T07:48:01;102045.19;;;4.25;71.28
28289;BME280;15558;50.874;6.964;2023-01-26T07:50:28;102037.06;;;4.30;71.29
28289;BME280;15558;50.874;6.964;2023-01-26T07:52:59;102045.13;;;4.32;71.12
28289;BME280;15558;50.874;6.964;2023-01-26T07:55:43;102040.66;;;4.31;71.19
28289;BME280;15558;50.874;6.964;2023-01-26T07:58:10;102044.28;;;4.31;71.23
28289;BME280;15558;50.874;6.964;2023-01-26T08:00:39;102035.88;;;4.38;71.33
28289;BME280;15558;50.874;6.964;2023-01-26T08:03:08;102035.88;;;4.38;71.61
28289;BME280;15558;50.874;6.964;2023-01-26T08:05:33;102044.22;;;4.38;71.42
28289;BME280;15558;50.874;6.964;2023-01-26T08:08:19;102041.44;;;4.38;71.78
28289;BME280;15558;50.874;6.964;2023-01-26T08:10:49;102041.00;;;4.41;71.22
28289;BME280;15558;50.874;6.964;2023-01-26T08:13:17;102054.44;;;4.44;71.45
28289;BME280;15558;50.874;6.964;2023-01-26T08:15:46;102043.78;;;4.41;71.34
28289;BME280;15558;50.874;6.964;2023-01-26T08:18:12;102035.59;;;4.46;71.04
28289;BME280;15558;50.874;6.964;2023-01-26T08:20:41;102041.16;;;4.46;70.87
28289;BME280;15558;50.874;6.964;2023-01-26T08:23:14;102038.78;;;4.49;70.78
28289;BME280;15558;50.874;6.964;2023-01-26T08:25:40;102045.41;;;4.48;71.34
28289;BME280;15558;50.874;6.964;2023-01-26T08:28:09;102042.63;;;4.48;71.27
28289;BME280;15558;50.874;6.964;2023-01-26T08:30:38;102048.88;;;4.44;71.86
28289;BME280;15558;50.874;6.964;2023-01-26T08:33:08;102043.72;;;4.47;71.28
28289;BME280;15558;50.874;6.964;2023-01-26T08:35:34;102058.06;;;4.44;71.37
28289;BME280;15558;50.874;6.964;2023-01-26T08:38:21;102058.69;;;4.46;71.70
28289;BME280;15558;50.874;6.964;2023-01-26T08:40:51;102064.47;;;4.45;71.14
28289;BME280;15558;50.874;6.964;2023-01-26T08:43:29;102055.84;;;4.53;70.83
28289;BME280;15558;50.874;6.964;2023-01-26T08:45:57;102053.06;;;4.53;70.88
28289;BME280;15558;50.874;6.964;2023-01-26T08:48:34;102054.53;;;4.55;71.09
28289;BME280;15558;50.874;6.964;2023-01-26T08:51:04;102063.25;;;4.58;71.02
28289;BME280;15558;50.874;6.964;2023-01-26T08:53:44;102064.50;;;4.62;70.92
28289;BME280;15558;50.874;6.964;2023-01-26T08:56:13;102065.59;;;4.61;71.53
28289;BME280;15558;50.874;6.964;2023-01-26T08:58:39;102071.38;;;4.60;70.89
28289;BME280;15558;50.874;6.964;2023-01-26T09:01:05;102074.53;;;4.63;70.92
28289;BME280;15558;50.874;6.964;2023-01-26T09:06:15;102070.03;;;4.87;71.03
28289;BME280;15558;50.874;6.964;2023-01-26T09:11:42;102060.81;;;4.86;70.61
28289;BME280;15558;50.874;6.964;2023-01-26T09:14:31;102065.31;;;4.87;70.52
28289;BME280;15558;50.874;6.964;2023-01-26T09:17:03;102074.09;;;4.84;70.62
28289;BME280;15558;50.874;6.964;2023-01-26T09:19:30;102075.81;;;4.85;71.43
28289;BME280;15558;50.874;6.964;2023-01-26T09:21:58;102065.94;;;4.89;71.08
28289;BME280;15558;50.874;6.964;2023-01-26T09:24:24;102069.78;;;4.88;71.08
28289;BME280;15558;50.874;6.964;2023-01-26T09:26:52;102071.50;;;4.89;71.02
28289;BME280;15558;50.874;6.964;2023-01-26T09:29:27;102073.19;;;4.90;71.31
28289;BME280;15558;50.874;6.964;2023-01-26T09:32:04;102076.22;;;4.88;70.82
28289;BME280;15558;50.874;6.964;2023-01-26T09:34:34;102077.69;;;4.91;70.68
28289;BME280;15558;50.874;6.964;2023-01-26T09:37:13;102080.81;;;4.94;70.77
28289;BME280;15558;50.874;6.964;2023-01-26T09:39:39;102087.34;;;4.88;70.79
28289;BME280;15558;50.874;6.964;2023-01-26T09:45:02;102086.78;;;4.98;71.03
28289;BME280;15558;50.874;6.964;2023-01-26T09:47:54;102076.22;;;4.88;71.67
28289;BME280;15558;50.874;6.964;2023-01-26T09:50:39;102085.19;;;4.90;70.86
28289;BME280;15558;50.874;6.964;2023-01-26T09:55:36;102088.72;;;4.97;71.36
28289;BME280;15558;50.874;6.964;2023-01-26T09:58:20;102075.66;;;4.98;71.07
28289;BME280;15558;50.874;6.964;2023-01-26T10:00:57;102085.72;;;4.99;70.96
28289;BME280;15558;50.874;6.964;2023-01-26T10:03:42;102081.84;;;5.00;71.26
28289;BME280;15558;50.874;6.964;2023-01-26T10:06:22;102084.56;;;5.06;71.02
28289;BME280;15558;50.874;6.964;2023-01-26T10:08:59;102086.34;;;5.01;71.27
28289;BME280;15558;50.874;6.964;2023-01-26T10:11:45;102084.81;;;5.05;71.75
28289;BME280;15558;50.874;6.964;2023-01-26T10:14:22;102072.09;;;5.09;71.32
28289;BME280;15558;50.874;6.964;2023-01-26T10:16:55;102080.75;;;5.19;71.52
28289;BME280;15558;50.874;6.964;2023-01-26T10:22:13;102069.84;;;5.17;71.65
28289;BME280;15558;50.874;6.964;2023-01-26T10:24:41;102068.13;;;5.05;72.11
28289;BME280;15558;50.874;6.964;2023-01-26T10:27:12;102077.00;;;5.13;72.05
28289;BME280;15558;50.874;6.964;2023-01-26T10:29:44;102070.47;;;5.19;72.21
28289;BME280;15558;50.874;6.964;2023-01-26T10:32:26;102062.28;;;5.24;71.72
28289;BME280;15558;50.874;6.964;2023-01-26T10:34:57;102067.03;;;5.23;71.91
28289;BME280;15558;50.874;6.964;2023-01-26T10:37:25;102062.91;;;5.26;71.88
28289;BME280;15558;50.874;6.964;2023-01-26T10:40:02;102056.50;;;5.25;71.75
28289;BME280;15558;50.874;6.964;2023-01-26T10:42:33;102047.91;;;5.27;71.74
28289;BME280;15558;50.874;6.964;2023-01-26T10:45:00;102054.69;;;5.31;71.81
28289;BME280;15558;50.874;6.964;2023-01-26T10:47:31;102059.28;;;5.25;72.01
28289;BME280;15558;50.874;6.964;2023-01-26T10:53:00;102035.44;;;5.29;72.42
28289;BME280;15558;50.874;6.964;2023-01-26T10:55:28;102050.06;;;5.25;72.41
28289;BME280;15558;50.874;6.964;2023-01-26T10:57:56;102038.09;;;5.24;72.13
28289;BME280;15558;50.874;6.964;2023-01-26T11:00:28;102030.97;;;5.28;72.17
28289;BME280;15558;50.874;6.964;2023-01-26T11:05:38;102025.53;;;5.33;71.92
28289;BME280;15558;50.874;6.964;2023-01-26T11:08:33;102030.66;;;5.36;71.77
28289;BME280;15558;50.874;6.964;2023-01-26T11:10:59;102025.94;;;5.37;71.89
28289;BME280;15558;50.874;6.964;2023-01-26T11:13:30;102020.47;;;5.30;72.08
28289;BME280;15558;50.874;6.964;2023-01-26T11:16:09;102020.22;;;5.32;71.94
28289;BME280;15558;50.874;6.964;2023-01-26T11:19:11;102021.19;;;5.37;72.02
28289;BME280;15558;50.874;6.964;2023-01-26T11:21:55;102019.66;;;5.41;72.07
28289;BME280;15558;50.874;6.964;2023-01-26T11:26:58;102012.91;;;5.49;71.92
28289;BME280;15558;50.874;6.964;2023-01-26T11:29:38;102021.00;;;5.50;72.03
28289;BME280;15558;50.874;6.964;2023-01-26T11:35:31;102019.94;;;5.51;71.67
28289;BME280;15558;50.874;6.964;2023-01-26T11:46:57;102010.97;;;5.49;72.42
28289;BME280;15558;50.874;6.964;2023-01-26T11:52:30;101994.88;;;5.51;72.66
28289;BME280;15558;50.874;6.964;2023-01-26T12:00:55;101977.13;;;5.63;72.19
28289;BME280;15558;50.874;6.964;2023-01-26T12:03:42;101990.06;;;5.58;72.43
28289;BME280;15558;50.874;6.964;2023-01-26T12:06:26;101980.03;;;5.68;72.61
28289;BME280;15558;50.874;6.964;2023-01-26T12:09:04;101974.19;;;5.58;72.52
28289;BME280;15558;50.874;6.964;2023-01-26T12:23:04;101983.53;;;5.64;71.99
28289;BME280;15558;50.874;6.964;2023-01-26T12:25:46;101973.97;;;5.60;72.01
28289;BME280;15558;50.874;6.964;2023-01-26T12:28:16;101972.38;;;5.53;72.46
28289;BME280;15558;50.874;6.964;2023-01-26T12:30:51;101965.47;;;5.55;72.65
28289;BME280;15558;50.874;6.964;2023-01-26T12:33:21;101969.69;;;5.46;73.24
28289;BME280;15558;50.874;6.964;2023-01-26T12:44:21;101937.03;;;5.53;72.88
28289;BME280;15558;50.874;6.964;2023-01-26T12:47:07;101948.56;;;5.57;72.80
28289;BME280;15558;50.874;6.964;2023-01-26T12:49:44;101940.78;;;5.58;72.82
28289;BME280;15558;50.874;6.964;2023-01-26T13:00:49;101942.25;;;5.61;72.36
28289;BME280;15558;50.874;6.964;2023-01-26T13:03:25;101924.44;;;5.62;72.83
28289;BME280;15558;50.874;6.964;2023-01-26T13:11:42;101931.84;;;5.57;73.17
28289;BME280;15558;50.874;6.964;2023-01-26T13:19:51;101921.22;;;5.65;72.32
28289;BME280;15558;50.874;6.964;2023-01-26T13:24:48;101920.72;;;5.68;72.77
28289;BME280;15558;50.874;6.964;2023-01-26T13:29:57;101920.94;;;5.66;72.81
28289;BME280;15558;50.874;6.964;2023-01-26T13:34:58;101925.19;;;5.69;72.43
28289;BME280;15558;50.874;6.964;2023-01-26T13:37:32;101925.97;;;5.76;72.64
28289;BME280;15558;50.874;6.964;2023-01-26T13:51:31;101924.03;;;5.76;73.10
28289;BME280;15558;50.874;6.964;2023-01-26T13:54:15;101924.13;;;5.81;72.62
28289;BME280;15558;50.874;6.964;2023-01-26T13:56:43;101928.16;;;5.85;72.88
28289;BME280;15558;50.874;6.964;2023-01-26T13:59:46;101931.81;;;5.86;72.84
28289;BME280;15558;50.874;6.964;2023-01-26T14:02:29;101925.25;;;5.92;72.81
28289;BME280;15558;50.874;6.964;2023-01-26T14:04:59;101930.94;;;5.85;73.28
28289;BME280;15558;50.874;6.964;2023-01-26T14:07:30;101932.53;;;5.93;72.87
28289;BME280;15558;50.874;6.964;2023-01-26T14:10:19;101917.63;;;5.98;72.55
28289;BME280;15558;50.874;6.964;2023-01-26T14:12:51;101926.56;;;5.89;72.94
28289;BME280;15558;50.874;6.964;2023-01-26T14:15:25;101928.03;;;5.92;72.69
28289;BME280;15558;50.874;6.964;2023-01-26T14:17:56;101935.31;;;6.04;72.78
28289;BME280;15558;50.874;6.964;2023-01-26T14:20:40;101935.94;;;5.94;73.03
28289;BME280;15558;50.874;6.964;2023-01-26T14:23:20;101932.75;;;5.91;73.41
28289;BME280;15558;50.874;6.964;2023-01-26T14:26:00;101932.19;;;6.00;72.65
28289;BME280;15558;50.874;6.964;2023-01-26T14:28:30;101926.56;;;5.89;73.20
28289;BME280;15558;50.874;6.964;2023-01-26T14:34:07;101936.53;;;5.96;73.37
28289;BME280;15558;50.874;6.964;2023-01-26T14:36:33;101936.28;;;5.87;73.24
28289;BME280;15558;50.874;6.964;2023-01-26T14:39:10;101932.16;;;5.89;73.54
28289;BME280;15558;50.874;6.964;2023-01-26T14:41:42;101930.19;;;5.90;73.80
28289;BME280;15558;50.874;6.964;2023-01-26T14:44:17;101940.28;;;5.91;73.97
28289;BME280;15558;50.874;6.964;2023-01-26T14:52:36;101927.69;;;5.99;74.07
28289;BME280;15558;50.874;6.964;2023-01-26T14:55:17;101935.81;;;6.01;74.22
28289;BME280;15558;50.874;6.964;2023-01-26T15:00:46;101925.72;;;6.00;73.89
28289;BME280;15558;50.874;6.964;2023-01-26T15:06:06;101932.28;;;6.05;73.96
28289;BME280;15558;50.874;6.964;2023-01-26T15:08:34;101936.53;;;6.08;74.27
28289;BME280;15558;50.874;6.964;2023-01-26T15:11:06;101942.25;;;6.13;74.32
28289;BME280;15558;50.874;6.964;2023-01-26T15:13:52;101941.50;;;6.06;74.26
28289;BME280;15558;50.874;6.964;2023-01-26T15:16:23;101949.38;;;6.09;74.33
28289;BME280;15558;50.874;6.964;2023-01-26T15:19:01;101945.88;;;6.13;74.38
28289;BME280;15558;50.874;6.964;2023-01-26T15:21:36;101947.56;;;6.14;74.39
28289;BME280;15558;50.874;6.964;2023-01-26T15:24:11;101946.97;;;6.24;74.15
28289;BME280;15558;50.874;6.964;2023-01-26T15:26:43;101942.13;;;6.19;74.47
28289;BME280;15558;50.874;6.964;2023-01-26T15:29:23;101953.38;;;6.13;74.33
28289;BME280;15558;50.874;6.964;2023-01-26T15:31:51;101939.56;;;6.06;74.44
28289;BME280;15558;50.874;6.964;2023-01-26T15:34:36;101942.47;;;6.11;74.37
28289;BME280;15558;50.874;6.964;2023-01-26T15:37:32;101945.63;;;6.15;74.51
28289;BME280;15558;50.874;6.964;2023-01-26T15:40:28;101939.44;;;6.24;74.86